createdAt,value
2023-04-16T00:00:13.516Z,9.16
2023-04-16T00:01:13.606Z,9.00
2023-04-16T00:02:13.774Z,8.90
2023-04-16T00:03:13.823Z,8.96
2023-04-16T00:04:13.798Z,9.07
2023-04-16T00:05:13.924Z,9.01
2023-04-16T00:06:13.878Z,9.06
2023-04-16T00:07:13.933Z,9.16
2023-04-16T00:08:13.975Z,9.40
2023-04-16T00:09:14.053Z,9.63
2023-04-16T00:10:14.933Z,9.74
2023-04-16T00:11:14.124Z,9.63
2023-04-16T00:12:14.188Z,9.46
2023-04-16T00:13:14.201Z,9.29
2023-04-16T00:14:14.197Z,9.13
2023-04-16T00:15:14.201Z,9.27
2023-04-16T00:16:14.293Z,9.33
2023-04-16T00:17:14.306Z,9.33
2023-04-16T00:18:14.341Z,9.22
2023-04-16T00:19:14.374Z,9.09
2023-04-16T00:20:14.467Z,8.94
2023-04-16T00:21:14.459Z,8.90
2023-04-16T00:22:14.454Z,8.89
2023-04-16T00:23:14.482Z,8.99
2023-04-16T00:24:14.517Z,9.03
2023-04-16T00:25:14.524Z,9.15
2023-04-16T00:26:14.519Z,9.22
2023-04-16T00:27:14.543Z,9.11
2023-04-16T00:28:14.571Z,9.23
2023-04-16T00:29:14.561Z,9.19
2023-04-16T00:30:14.567Z,9.15
2023-04-16T00:31:14.639Z,9.17
2023-04-16T00:32:14.513Z,9.14
2023-04-16T00:33:14.593Z,9.25
2023-04-16T00:34:14.617Z,9.19
2023-04-16T00:35:14.642Z,9.16
2023-04-16T00:36:14.624Z,9.36
2023-04-16T00:37:14.657Z,9.51
2023-04-16T00:38:14.698Z,9.65
2023-04-16T00:39:14.841Z,9.74
2023-04-16T00:40:14.718Z,9.83
2023-04-16T00:41:14.712Z,9.72
2023-04-16T00:42:14.810Z,9.73
2023-04-16T00:43:14.737Z,9.78
2023-04-16T00:44:14.761Z,9.74
2023-04-16T00:45:14.838Z,9.60
2023-04-16T00:46:14.953Z,9.39
2023-04-16T00:47:15.108Z,9.20
2023-04-16T00:48:15.045Z,9.15
2023-04-16T00:49:15.041Z,9.07
2023-04-16T00:50:15.142Z,9.02
2023-04-16T00:51:15.240Z,9.14
2023-04-16T00:52:15.258Z,9.17
2023-04-16T00:53:15.326Z,9.36
2023-04-16T00:54:15.368Z,9.61
2023-04-16T00:55:15.444Z,9.53
2023-04-16T00:56:15.918Z,9.65
2023-04-16T00:57:15.581Z,9.66
2023-04-16T00:58:15.605Z,9.39
2023-04-16T00:59:15.620Z,9.13
2023-04-16T01:00:15.630Z,8.93
2023-04-16T01:01:15.661Z,8.81
2023-04-16T01:02:15.726Z,8.74
2023-04-16T01:03:15.822Z,8.71
2023-04-16T01:04:15.781Z,8.79
2023-04-16T01:05:15.686Z,9.03
2023-04-16T01:06:15.789Z,9.29
2023-04-16T01:07:15.800Z,9.47
2023-04-16T01:08:15.852Z,9.49
2023-04-16T01:09:15.915Z,9.56
2023-04-16T01:10:15.950Z,9.65
2023-04-16T01:11:15.958Z,9.80
2023-04-16T01:12:15.978Z,9.96
2023-04-16T01:13:15.987Z,10.07
2023-04-16T01:14:16.013Z,10.15
2023-04-16T01:15:16.057Z,10.08
2023-04-16T01:16:16.123Z,10.08
2023-04-16T01:17:16.076Z,10.07
2023-04-16T01:18:16.073Z,10.07
2023-04-16T01:19:16.148Z,10.06
2023-04-16T01:20:16.168Z,10.05
2023-04-16T01:21:16.200Z,10.14
2023-04-16T01:22:16.242Z,10.12
2023-04-16T01:23:16.212Z,10.05
2023-04-16T01:24:16.229Z,10.05
2023-04-16T01:25:16.247Z,10.00
2023-04-16T01:26:16.287Z,10.05
2023-04-16T01:27:16.280Z,10.12
2023-04-16T01:28:16.202Z,10.19
2023-04-16T01:29:16.278Z,10.02
2023-04-16T01:30:16.321Z,9.77
2023-04-16T01:31:16.425Z,9.71
2023-04-16T01:32:16.530Z,9.79
2023-04-16T01:33:16.507Z,9.89
2023-04-16T01:34:16.500Z,9.98
2023-04-16T01:35:16.535Z,10.07
2023-04-16T01:36:16.583Z,10.09
2023-04-16T01:37:16.570Z,10.20
2023-04-16T01:38:16.602Z,10.22
2023-04-16T01:39:16.639Z,10.28
2023-04-16T01:40:16.632Z,10.33
2023-04-16T01:41:16.586Z,10.22
2023-04-16T01:42:16.601Z,9.77
2023-04-16T01:43:16.676Z,9.39
2023-04-16T01:44:16.677Z,9.14
2023-04-16T01:45:16.642Z,8.92
2023-04-16T01:46:16.686Z,8.78
2023-04-16T01:47:16.681Z,8.72
2023-04-16T01:48:16.727Z,8.67
2023-04-16T01:49:16.726Z,8.61
2023-04-16T01:50:16.798Z,8.60
2023-04-16T01:51:16.805Z,8.60
2023-04-16T01:52:16.844Z,8.57
2023-04-16T01:53:16.922Z,8.55
2023-04-16T01:54:16.953Z,8.53
2023-04-16T01:55:16.977Z,8.53
2023-04-16T01:56:16.988Z,8.59
2023-04-16T01:57:16.987Z,8.68
2023-04-16T01:58:17.050Z,8.84
2023-04-16T01:59:17.133Z,8.94
2023-04-16T02:00:17.208Z,9.19
2023-04-16T02:01:17.249Z,9.37
2023-04-16T02:02:17.424Z,9.41
2023-04-16T02:03:17.510Z,9.27
2023-04-16T02:04:17.436Z,9.13
2023-04-16T02:05:17.516Z,9.10
2023-04-16T02:06:17.515Z,9.13
2023-04-16T02:07:17.502Z,9.21
2023-04-16T02:08:17.492Z,9.09
2023-04-16T02:09:17.510Z,9.04
2023-04-16T02:10:17.543Z,8.89
2023-04-16T02:11:17.535Z,8.81
2023-04-16T02:12:17.603Z,8.89
2023-04-16T02:13:17.710Z,8.99
2023-04-16T02:14:17.823Z,9.09
2023-04-16T02:15:17.930Z,8.99
2023-04-16T02:16:18.018Z,8.95
2023-04-16T02:17:17.957Z,8.99
2023-04-16T02:18:18.013Z,9.08
2023-04-16T02:19:18.060Z,9.11
2023-04-16T02:20:18.164Z,9.19
2023-04-16T02:21:18.164Z,9.30
2023-04-16T02:22:18.229Z,9.42
2023-04-16T02:23:18.308Z,9.54
2023-04-16T02:24:18.363Z,9.72
2023-04-16T02:25:18.397Z,9.89
2023-04-16T02:26:18.454Z,10.02
2023-04-16T02:27:18.455Z,9.88
2023-04-16T02:28:18.474Z,9.71
2023-04-16T02:29:18.526Z,9.60
2023-04-16T02:30:18.600Z,9.33
2023-04-16T02:31:18.712Z,9.21
2023-04-16T02:32:18.720Z,9.15
2023-04-16T02:33:18.791Z,9.03
2023-04-16T02:34:18.829Z,8.88
2023-04-16T02:35:18.901Z,8.85
2023-04-16T02:36:18.923Z,8.81
2023-04-16T02:37:18.996Z,8.99
2023-04-16T02:38:18.974Z,9.32
2023-04-16T02:39:18.968Z,9.52
2023-04-16T02:40:18.998Z,9.67
2023-04-16T02:41:18.971Z,9.82
2023-04-16T02:42:19.037Z,9.92
2023-04-16T02:43:18.998Z,9.70
2023-04-16T02:44:18.944Z,9.37
2023-04-16T02:45:18.973Z,9.11
2023-04-16T02:46:19.080Z,8.98
2023-04-16T02:47:18.997Z,9.09
2023-04-16T02:48:19.009Z,9.28
2023-04-16T02:49:19.082Z,9.47
2023-04-16T02:50:19.191Z,9.63
2023-04-16T02:51:19.191Z,9.74
2023-04-16T02:52:19.210Z,9.86
2023-04-16T02:53:19.250Z,9.95
2023-04-16T02:54:19.258Z,10.01
2023-04-16T02:55:19.385Z,10.09
2023-04-16T02:56:19.393Z,10.17
2023-04-16T02:57:19.406Z,10.24
2023-04-16T02:58:19.492Z,10.27
2023-04-16T02:59:19.601Z,10.24
2023-04-16T03:00:19.623Z,10.24
2023-04-16T03:01:19.661Z,10.09
2023-04-16T03:02:19.675Z,10.11
2023-04-16T03:03:19.716Z,10.10
2023-04-16T03:04:19.736Z,10.01
2023-04-16T03:05:19.682Z,9.99
2023-04-16T03:06:19.667Z,9.89
2023-04-16T03:07:19.718Z,9.82
2023-04-16T03:08:19.706Z,9.86
2023-04-16T03:09:19.737Z,9.94
2023-04-16T03:10:19.746Z,9.99
2023-04-16T03:11:19.766Z,9.92
2023-04-16T03:12:19.771Z,9.92
2023-04-16T03:13:19.798Z,9.95
2023-04-16T03:14:19.820Z,10.00
2023-04-16T03:15:19.852Z,10.07
2023-04-16T03:16:20.221Z,10.08
2023-04-16T03:17:19.932Z,10.04
2023-04-16T03:18:20.028Z,10.02
2023-04-16T03:19:20.114Z,9.99
2023-04-16T03:20:20.312Z,9.88
2023-04-16T03:21:20.283Z,9.93
2023-04-16T03:22:20.294Z,9.90
2023-04-16T03:23:20.284Z,9.87
2023-04-16T03:24:20.372Z,9.86
2023-04-16T03:25:20.326Z,9.83
2023-04-16T03:26:20.310Z,9.86
2023-04-16T03:27:20.366Z,9.98
2023-04-16T03:28:20.418Z,10.06
2023-04-16T03:29:20.368Z,10.10
2023-04-16T03:30:20.410Z,10.14
2023-04-16T03:31:20.431Z,10.18
2023-04-16T03:32:20.554Z,10.17
2023-04-16T03:33:20.466Z,9.97
2023-04-16T03:34:20.497Z,9.86
2023-04-16T03:35:20.511Z,9.99
2023-04-16T03:36:20.542Z,10.02
2023-04-16T03:37:20.575Z,10.07
2023-04-16T03:38:20.538Z,10.10
2023-04-16T03:39:20.628Z,10.07
2023-04-16T03:40:20.591Z,10.01
2023-04-16T03:41:20.579Z,9.79
2023-04-16T03:42:20.606Z,9.75
2023-04-16T03:43:20.682Z,9.59
2023-04-16T03:44:20.756Z,9.49
2023-04-16T03:45:20.820Z,9.36
2023-04-16T03:46:21.032Z,9.32
2023-04-16T03:47:20.973Z,9.34
2023-04-16T03:48:20.966Z,9.37
2023-04-16T03:49:21.126Z,9.60
2023-04-16T03:50:21.174Z,9.77
2023-04-16T03:51:21.174Z,9.91
2023-04-16T03:52:21.180Z,9.93
2023-04-16T03:53:21.216Z,9.96
2023-04-16T03:54:22.742Z,10.00
2023-04-16T03:55:21.188Z,10.04
2023-04-16T03:56:21.216Z,10.06
2023-04-16T03:57:21.197Z,10.07
2023-04-16T03:58:21.199Z,10.06
2023-04-16T03:59:21.255Z,10.02
2023-04-16T04:00:21.574Z,9.94
2023-04-16T04:01:21.210Z,9.83
2023-04-16T04:02:21.393Z,9.64
2023-04-16T04:03:22.309Z,9.66
2023-04-16T04:04:21.341Z,9.70
2023-04-16T04:05:21.306Z,9.61
2023-04-16T04:06:21.333Z,9.58
2023-04-16T04:07:21.380Z,9.36
2023-04-16T04:08:21.426Z,9.25
2023-04-16T04:09:21.500Z,9.21
2023-04-16T04:10:21.510Z,9.34
2023-04-16T04:11:21.560Z,9.43
2023-04-16T04:12:21.596Z,9.39
2023-04-16T04:13:21.643Z,9.54
2023-04-16T04:14:21.701Z,9.69
2023-04-16T04:15:21.751Z,9.71
2023-04-16T04:16:21.876Z,9.62
2023-04-16T04:17:21.765Z,9.60
2023-04-16T04:18:21.773Z,9.59
2023-04-16T04:19:21.783Z,9.69
2023-04-16T04:20:21.754Z,9.75
2023-04-16T04:21:21.773Z,9.83
2023-04-16T04:22:21.776Z,9.90
2023-04-16T04:23:21.782Z,9.88
2023-04-16T04:24:21.816Z,9.88
2023-04-16T04:25:21.840Z,9.93
2023-04-16T04:26:21.882Z,9.98
2023-04-16T04:27:21.817Z,9.99
2023-04-16T04:28:21.862Z,10.03
2023-04-16T04:29:21.871Z,10.06
2023-04-16T04:30:21.921Z,10.13
2023-04-16T04:31:21.892Z,10.13
2023-04-16T04:32:21.997Z,10.12
2023-04-16T04:33:21.976Z,10.09
2023-04-16T04:34:22.023Z,10.04
2023-04-16T04:35:22.056Z,10.01
2023-04-16T04:36:22.005Z,10.04
2023-04-16T04:37:22.068Z,9.96
2023-04-16T04:38:22.109Z,10.02
2023-04-16T04:39:22.094Z,9.96
2023-04-16T04:40:22.205Z,9.70
2023-04-16T04:41:22.099Z,9.65
2023-04-16T04:42:22.115Z,9.64
2023-04-16T04:43:22.059Z,9.61
2023-04-16T04:44:22.060Z,9.69
2023-04-16T04:45:22.070Z,9.77
2023-04-16T04:46:22.271Z,9.83
2023-04-16T04:47:22.151Z,9.89
2023-04-16T04:48:22.180Z,9.96
2023-04-16T04:49:22.155Z,10.01
2023-04-16T04:50:22.197Z,9.91
2023-04-16T04:51:22.217Z,9.67
2023-04-16T04:52:22.183Z,9.48
2023-04-16T04:53:22.240Z,9.52
2023-04-16T04:54:22.321Z,9.68
2023-04-16T04:55:22.395Z,9.81
2023-04-16T04:56:22.412Z,9.84
2023-04-16T04:57:22.419Z,9.93
2023-04-16T04:58:22.426Z,10.02
2023-04-16T04:59:22.460Z,10.08
2023-04-16T05:00:22.512Z,10.10
2023-04-16T05:01:22.488Z,10.16
2023-04-16T05:02:22.612Z,10.19
2023-04-16T05:03:22.688Z,10.26
2023-04-16T05:04:22.500Z,10.28
2023-04-16T05:05:22.545Z,10.31
2023-04-16T05:06:23.476Z,10.34
2023-04-16T05:07:22.503Z,10.35
2023-04-16T05:08:22.503Z,10.31
2023-04-16T05:09:22.523Z,10.22
2023-04-16T05:10:22.511Z,10.26
2023-04-16T05:11:22.537Z,10.32
2023-04-16T05:12:22.564Z,10.34
2023-04-16T05:13:22.554Z,10.30
2023-04-16T05:14:22.601Z,10.06
2023-04-16T05:15:22.619Z,9.68
2023-04-16T05:16:22.738Z,9.45
2023-04-16T05:17:22.722Z,9.62
2023-04-16T05:18:22.732Z,9.79
2023-04-16T05:19:22.786Z,9.83
2023-04-16T05:20:22.876Z,9.94
2023-04-16T05:21:22.884Z,10.02
2023-04-16T05:22:22.946Z,10.14
2023-04-16T05:23:23.000Z,10.21
2023-04-16T05:24:23.063Z,10.26
2023-04-16T05:25:23.161Z,10.12
2023-04-16T05:26:23.186Z,9.79
2023-04-16T05:27:23.249Z,9.58
2023-04-16T05:28:23.305Z,9.68
2023-04-16T05:29:23.343Z,9.81
2023-04-16T05:30:23.395Z,9.93
2023-04-16T05:31:23.483Z,9.98
2023-04-16T05:32:23.521Z,10.03
2023-04-16T05:33:24.056Z,10.16
2023-04-16T05:34:23.607Z,10.25
2023-04-16T05:35:23.638Z,10.32
2023-04-16T05:36:23.645Z,10.29
2023-04-16T05:37:23.727Z,10.05
2023-04-16T05:38:23.785Z,9.69
2023-04-16T05:39:23.962Z,9.42
2023-04-16T05:40:23.923Z,9.18
2023-04-16T05:41:23.952Z,9.09
2023-04-16T05:42:24.052Z,9.02
2023-04-16T05:43:24.050Z,8.90
2023-04-16T05:44:24.100Z,8.88
2023-04-16T05:45:25.127Z,8.84
2023-04-16T05:46:24.147Z,8.79
2023-04-16T05:47:24.159Z,8.81
2023-04-16T05:48:24.166Z,8.86
2023-04-16T05:49:24.180Z,8.75
2023-04-16T05:50:24.214Z,8.71
2023-04-16T05:51:24.216Z,8.87
2023-04-16T05:52:24.241Z,8.95
2023-04-16T05:53:24.258Z,9.11
2023-04-16T05:54:24.327Z,9.37
2023-04-16T05:55:24.381Z,9.61
2023-04-16T05:56:24.431Z,9.81
2023-04-16T05:57:24.481Z,9.97
2023-04-16T05:58:24.560Z,10.13
2023-04-16T05:59:24.592Z,10.12
2023-04-16T06:00:24.592Z,10.18
2023-04-16T06:01:24.629Z,10.16
2023-04-16T06:02:24.797Z,10.27
2023-04-16T06:03:24.708Z,10.37
2023-04-16T06:04:24.658Z,10.45
2023-04-16T06:05:24.742Z,10.50
2023-04-16T06:06:24.775Z,10.61
2023-04-16T06:07:24.776Z,10.55
2023-04-16T06:08:24.861Z,10.31
2023-04-16T06:09:24.902Z,9.94
2023-04-16T06:10:24.939Z,9.70
2023-04-16T06:11:24.937Z,9.55
2023-04-16T06:12:25.066Z,9.49
2023-04-16T06:13:25.069Z,9.48
2023-04-16T06:14:25.139Z,9.70
2023-04-16T06:15:25.143Z,9.97
2023-04-16T06:16:25.294Z,10.17
2023-04-16T06:17:25.306Z,10.07
2023-04-16T06:18:25.283Z,10.21
2023-04-16T06:19:25.332Z,10.34
2023-04-16T06:20:25.426Z,10.42
2023-04-16T06:21:25.348Z,10.54
2023-04-16T06:22:25.441Z,10.61
2023-04-16T06:23:25.460Z,10.64
2023-04-16T06:24:25.551Z,10.71
2023-04-16T06:25:25.588Z,10.78
2023-04-16T06:26:25.645Z,10.87
2023-04-16T06:27:25.726Z,10.90
2023-04-16T06:28:25.796Z,10.53
2023-04-16T06:29:37.074Z,10.31
2023-04-16T06:30:26.798Z,10.13
2023-04-16T06:31:25.792Z,10.03
2023-04-16T06:32:25.788Z,10.13
2023-04-16T06:33:25.778Z,10.27
2023-04-16T06:34:25.783Z,10.46
2023-04-16T06:35:25.776Z,10.59
2023-04-16T06:36:25.753Z,10.39
2023-04-16T06:37:25.707Z,10.18
2023-04-16T06:38:25.719Z,10.10
2023-04-16T06:39:25.984Z,10.13
2023-04-16T06:40:25.740Z,10.21
2023-04-16T06:41:25.746Z,10.30
2023-04-16T06:42:25.698Z,10.28
2023-04-16T06:43:25.717Z,10.25
2023-04-16T06:44:25.669Z,10.43
2023-04-16T06:45:25.733Z,10.57
2023-04-16T06:46:25.796Z,10.68
2023-04-16T06:47:25.851Z,10.66
2023-04-16T06:48:25.791Z,10.75
2023-04-16T06:49:25.798Z,10.78
2023-04-16T06:50:25.898Z,10.82
2023-04-16T06:51:25.912Z,10.90
2023-04-16T06:52:25.920Z,10.84
2023-04-16T06:53:26.037Z,10.60
2023-04-16T06:54:25.958Z,10.55
2023-04-16T06:55:25.985Z,10.61
2023-04-16T06:56:26.004Z,10.46
2023-04-16T06:57:26.123Z,10.38
2023-04-16T06:58:26.147Z,10.45
2023-04-16T06:59:26.199Z,10.49
2023-04-16T07:00:26.249Z,10.57
2023-04-16T07:01:26.283Z,10.59
2023-04-16T07:02:26.398Z,10.64
2023-04-16T07:03:26.489Z,10.78
2023-04-16T07:04:26.418Z,10.79
2023-04-16T07:05:26.484Z,10.90
2023-04-16T07:06:26.417Z,11.00
2023-04-16T07:07:26.446Z,11.10
2023-04-16T07:08:26.465Z,11.06
2023-04-16T07:09:26.502Z,10.87
2023-04-16T07:10:26.512Z,10.98
2023-04-16T07:11:26.577Z,10.89
2023-04-16T07:12:26.633Z,10.76
2023-04-16T07:13:26.760Z,10.89
2023-04-16T07:14:26.742Z,10.90
2023-04-16T07:15:26.784Z,10.96
2023-04-16T07:16:26.816Z,10.95
2023-04-16T07:17:26.919Z,10.64
2023-04-16T07:18:26.934Z,10.63
2023-04-16T07:19:26.890Z,10.80
2023-04-16T07:20:26.942Z,11.00
2023-04-16T07:21:26.972Z,11.09
2023-04-16T07:22:26.949Z,11.22
2023-04-16T07:23:26.975Z,11.27
2023-04-16T07:24:27.002Z,11.22
2023-04-16T07:25:27.032Z,10.98
2023-04-16T07:26:27.029Z,10.91
2023-04-16T07:27:27.043Z,11.07
2023-04-16T07:28:27.052Z,11.22
2023-04-16T07:29:27.017Z,11.23
2023-04-16T07:30:27.057Z,11.30
2023-04-16T07:31:27.100Z,11.33
2023-04-16T07:32:27.213Z,11.36
2023-04-16T07:33:27.173Z,11.49
2023-04-16T07:34:27.199Z,11.56
2023-04-16T07:35:27.246Z,11.33
2023-04-16T07:36:27.247Z,11.17
2023-04-16T07:37:27.242Z,11.05
2023-04-16T07:38:27.271Z,10.82
2023-04-16T07:39:27.292Z,10.94
2023-04-16T07:40:27.365Z,11.12
2023-04-16T07:41:27.352Z,11.30
2023-04-16T07:42:27.446Z,11.25
2023-04-16T07:43:27.537Z,11.19
2023-04-16T07:44:27.593Z,11.13
2023-04-16T07:45:27.663Z,11.20
2023-04-16T07:46:30.723Z,11.32
2023-04-16T07:47:28.694Z,11.41
2023-04-16T07:48:27.650Z,11.50
2023-04-16T07:49:27.582Z,11.55
2023-04-16T07:50:27.673Z,11.55
2023-04-16T07:51:27.648Z,11.32
2023-04-16T07:52:27.608Z,11.10
2023-04-16T07:53:27.639Z,11.18
2023-04-16T07:54:29.071Z,11.31
2023-04-16T07:55:27.606Z,11.29
2023-04-16T07:56:27.575Z,11.39
2023-04-16T07:57:27.898Z,11.47
2023-04-16T07:58:27.568Z,11.50
2023-04-16T07:59:27.897Z,11.49
2023-04-16T08:00:27.691Z,11.60
2023-04-16T08:01:27.722Z,11.63
2023-04-16T08:02:27.848Z,11.77
2023-04-16T08:03:28.086Z,11.86
2023-04-16T08:04:28.032Z,11.88
2023-04-16T08:05:27.899Z,11.73
2023-04-16T08:06:27.904Z,11.76
2023-04-16T08:07:27.891Z,11.64
2023-04-16T08:08:27.904Z,11.74
2023-04-16T08:09:27.913Z,11.83
2023-04-16T08:10:27.931Z,11.73
2023-04-16T08:11:27.937Z,11.60
2023-04-16T08:12:27.898Z,11.47
2023-04-16T08:13:27.942Z,11.28
2023-04-16T08:14:27.964Z,11.31
2023-04-16T08:15:28.065Z,11.54
2023-04-16T08:16:28.138Z,11.77
2023-04-16T08:17:28.063Z,11.95
2023-04-16T08:18:28.130Z,12.07
2023-04-16T08:19:28.198Z,12.04
2023-04-16T08:20:28.293Z,12.09
2023-04-16T08:21:28.257Z,12.13
2023-04-16T08:22:28.317Z,12.04
2023-04-16T08:23:28.395Z,11.97
2023-04-16T08:24:28.348Z,11.95
2023-04-16T08:25:28.387Z,11.90
2023-04-16T08:26:28.386Z,11.96
2023-04-16T08:27:28.360Z,11.93
2023-04-16T08:28:28.366Z,12.01
2023-04-16T08:29:28.415Z,12.18
2023-04-16T08:30:28.390Z,12.24
2023-04-16T08:31:28.426Z,12.26
2023-04-16T08:32:28.418Z,12.39
2023-04-16T08:33:28.403Z,12.50
2023-04-16T08:34:28.392Z,12.56
2023-04-16T08:35:28.477Z,12.53
2023-04-16T08:36:28.433Z,12.35
2023-04-16T08:37:28.475Z,12.43
2023-04-16T08:38:28.493Z,12.55
2023-04-16T08:39:28.593Z,12.69
2023-04-16T08:40:28.554Z,12.69
2023-04-16T08:41:28.522Z,12.69
2023-04-16T08:42:29.168Z,12.77
2023-04-16T08:43:28.555Z,12.63
2023-04-16T08:44:28.580Z,12.43
2023-04-16T08:45:28.615Z,12.51
2023-04-16T08:46:28.673Z,12.51
2023-04-16T08:47:28.684Z,12.58
2023-04-16T08:48:28.705Z,12.54
2023-04-16T08:49:28.796Z,12.38
2023-04-16T08:50:28.819Z,12.39
2023-04-16T08:51:28.875Z,12.48
2023-04-16T08:52:28.946Z,12.46
2023-04-16T08:53:29.341Z,12.59
2023-04-16T08:54:29.054Z,12.75
2023-04-16T08:55:29.042Z,12.62
2023-04-16T08:56:29.069Z,12.26
2023-04-16T08:57:29.099Z,12.33
2023-04-16T08:58:29.137Z,12.49
2023-04-16T08:59:29.137Z,12.58
2023-04-16T09:00:29.140Z,12.48
2023-04-16T09:01:29.212Z,12.37
2023-04-16T09:02:29.337Z,12.15
2023-04-16T09:03:29.358Z,12.11
2023-04-16T09:04:29.535Z,12.27
2023-04-16T09:05:29.327Z,12.29
2023-04-16T09:06:29.286Z,12.23
2023-04-16T09:07:29.309Z,12.17
2023-04-16T09:08:29.358Z,11.73
2023-04-16T09:09:29.407Z,11.81
2023-04-16T09:10:29.427Z,11.92
2023-04-16T09:11:29.464Z,12.07
2023-04-16T09:12:29.433Z,12.23
2023-04-16T09:13:29.436Z,12.05
2023-04-16T09:14:29.470Z,12.10
2023-04-16T09:15:29.506Z,12.29
2023-04-16T09:16:29.513Z,12.24
2023-04-16T09:17:29.533Z,12.09
2023-04-16T09:18:29.477Z,12.10
2023-04-16T09:19:29.471Z,12.09
2023-04-16T09:20:29.545Z,12.16
2023-04-16T09:21:29.560Z,12.23
2023-04-16T09:22:29.552Z,12.19
2023-04-16T09:23:29.648Z,12.39
2023-04-16T09:24:29.622Z,12.47
2023-04-16T09:25:29.727Z,12.43
2023-04-16T09:26:29.653Z,12.49
2023-04-16T09:27:29.664Z,12.59
2023-04-16T09:28:29.683Z,12.52
2023-04-16T09:29:29.702Z,12.36
2023-04-16T09:30:29.721Z,12.19
2023-04-16T09:31:29.751Z,12.37
2023-04-16T09:32:29.789Z,12.56
2023-04-16T09:33:29.705Z,12.70
2023-04-16T09:34:29.740Z,12.88
2023-04-16T09:35:29.797Z,13.02
2023-04-16T09:36:29.761Z,12.79
2023-04-16T09:37:29.855Z,12.74
2023-04-16T09:38:29.775Z,12.78
2023-04-16T09:39:29.793Z,12.76
2023-04-16T09:40:29.796Z,12.78
2023-04-16T09:41:29.853Z,12.69
2023-04-16T09:42:29.864Z,12.80
2023-04-16T09:43:29.850Z,12.85
2023-04-16T09:44:29.860Z,13.01
2023-04-16T09:45:29.905Z,13.08
2023-04-16T09:46:29.892Z,13.09
2023-04-16T09:47:29.874Z,12.88
2023-04-16T09:48:29.950Z,12.87
2023-04-16T09:49:29.927Z,12.75
2023-04-16T09:50:30.053Z,12.71
2023-04-16T09:51:30.074Z,12.84
2023-04-16T09:52:30.159Z,12.79
2023-04-16T09:53:30.251Z,12.77
2023-04-16T09:54:30.248Z,12.74
2023-04-16T09:55:30.285Z,12.73
2023-04-16T09:56:30.284Z,12.86
2023-04-16T09:57:30.293Z,12.81
2023-04-16T09:58:30.289Z,12.83
2023-04-16T09:59:30.287Z,12.95
2023-04-16T10:00:30.293Z,13.07
2023-04-16T10:01:30.342Z,13.23
2023-04-16T10:02:30.433Z,13.13
2023-04-16T10:03:30.662Z,13.17
2023-04-16T10:04:30.496Z,13.23
2023-04-16T10:05:30.419Z,13.33
2023-04-16T10:06:30.431Z,13.44
2023-04-16T10:07:30.545Z,13.58
2023-04-16T10:08:30.408Z,13.38
2023-04-16T10:09:30.403Z,13.21
2023-04-16T10:10:30.526Z,13.12
2023-04-16T10:11:30.407Z,13.29
2023-04-16T10:12:30.467Z,13.26
2023-04-16T10:13:30.532Z,13.15
2023-04-16T10:14:30.543Z,13.07
2023-04-16T10:15:30.607Z,12.93
2023-04-16T10:16:30.623Z,12.59
2023-04-16T10:17:30.655Z,12.46
2023-04-16T10:18:30.605Z,12.52
2023-04-16T10:19:30.630Z,12.53
2023-04-16T10:20:30.730Z,12.62
2023-04-16T10:21:30.621Z,12.52
2023-04-16T10:22:30.645Z,12.51
2023-04-16T10:23:30.698Z,12.43
2023-04-16T10:24:30.764Z,12.28
2023-04-16T10:25:30.785Z,12.37
2023-04-16T10:26:30.774Z,12.42
2023-04-16T10:27:30.872Z,12.36
2023-04-16T10:28:30.788Z,12.28
2023-04-16T10:29:30.806Z,12.36
2023-04-16T10:30:30.797Z,12.54
2023-04-16T10:31:30.850Z,12.78
2023-04-16T10:32:30.838Z,13.11
2023-04-16T10:33:30.879Z,13.01
2023-04-16T10:34:30.846Z,13.09
2023-04-16T10:35:32.030Z,13.23
2023-04-16T10:36:30.879Z,13.17
2023-04-16T10:37:30.906Z,13.34
2023-04-16T10:38:30.997Z,13.35
2023-04-16T10:39:31.040Z,13.23
2023-04-16T10:40:31.099Z,13.07
2023-04-16T10:41:31.078Z,13.02
2023-04-16T10:42:31.137Z,13.02
2023-04-16T10:43:31.175Z,12.91
2023-04-16T10:44:31.226Z,12.87
2023-04-16T10:45:31.343Z,12.88
2023-04-16T10:46:31.422Z,12.88
2023-04-16T10:47:31.369Z,13.01
2023-04-16T10:48:42.338Z,13.36
2023-04-16T10:49:32.391Z,13.15
2023-04-16T10:50:31.428Z,13.02
2023-04-16T10:51:31.425Z,13.38
2023-04-16T10:52:31.363Z,13.59
2023-04-16T10:53:31.373Z,13.71
2023-04-16T10:54:31.377Z,13.79
2023-04-16T10:55:31.402Z,13.99
2023-04-16T10:56:31.334Z,14.13
2023-04-16T10:57:32.131Z,13.95
2023-04-16T10:58:31.361Z,13.82
2023-04-16T10:59:31.343Z,13.54
2023-04-16T11:00:31.656Z,13.65
2023-04-16T11:01:31.409Z,13.54
2023-04-16T11:02:31.544Z,13.55
2023-04-16T11:03:31.481Z,13.69
2023-04-16T11:04:31.483Z,13.60
2023-04-16T11:05:31.588Z,13.32
2023-04-16T11:06:31.583Z,13.26
2023-04-16T11:07:31.626Z,13.27
2023-04-16T11:08:32.056Z,13.27
2023-04-16T11:09:31.697Z,13.33
2023-04-16T11:10:31.812Z,13.43
2023-04-16T11:11:31.796Z,13.66
2023-04-16T11:12:31.803Z,13.85
2023-04-16T11:13:31.841Z,13.89
2023-04-16T11:14:31.832Z,13.87
2023-04-16T11:15:31.969Z,14.05
2023-04-16T11:16:31.950Z,14.11
2023-04-16T11:17:32.027Z,14.02
2023-04-16T11:18:32.095Z,14.01
2023-04-16T11:19:32.154Z,13.91
2023-04-16T11:20:32.161Z,13.90
2023-04-16T11:21:32.230Z,14.09
2023-04-16T11:22:32.260Z,13.98
2023-04-16T11:23:32.335Z,14.03
2023-04-16T11:24:32.365Z,14.11
2023-04-16T11:25:32.441Z,14.26
2023-04-16T11:26:32.737Z,14.36
2023-04-16T11:27:32.410Z,14.36
2023-04-16T11:28:32.389Z,14.34
2023-04-16T11:29:32.384Z,14.20
2023-04-16T11:30:32.410Z,14.14
2023-04-16T11:31:32.496Z,14.31
2023-04-16T11:32:32.494Z,14.02
2023-04-16T11:33:32.438Z,13.73
2023-04-16T11:34:32.435Z,13.92
2023-04-16T11:35:32.450Z,14.11
2023-04-16T11:36:32.515Z,14.23
2023-04-16T11:37:32.549Z,14.34
2023-04-16T11:38:32.591Z,14.39
2023-04-16T11:39:32.648Z,14.49
2023-04-16T11:40:32.748Z,14.57
2023-04-16T11:41:32.764Z,14.63
2023-04-16T11:42:32.823Z,14.72
2023-04-16T11:43:32.792Z,14.60
2023-04-16T11:44:32.795Z,14.63
2023-04-16T11:45:32.810Z,14.72
2023-04-16T11:46:32.845Z,14.71
2023-04-16T11:47:32.927Z,14.48
2023-04-16T11:48:32.917Z,14.44
2023-04-16T11:49:33.005Z,14.60
2023-04-16T11:50:33.034Z,14.71
2023-04-16T11:51:33.092Z,14.81
2023-04-16T11:52:33.130Z,14.79
2023-04-16T11:53:33.149Z,14.69
2023-04-16T11:54:33.218Z,14.86
2023-04-16T11:55:33.251Z,14.91
2023-04-16T11:56:33.324Z,14.87
2023-04-16T11:57:33.368Z,14.90
2023-04-16T11:58:33.298Z,14.86
2023-04-16T11:59:33.368Z,14.42
2023-04-16T12:00:33.433Z,14.55
2023-04-16T12:01:33.439Z,14.56
2023-04-16T12:02:33.632Z,14.22
2023-04-16T12:03:33.677Z,14.07
2023-04-16T12:04:33.670Z,14.26
2023-04-16T12:05:33.774Z,14.41
2023-04-16T12:06:33.600Z,14.62
2023-04-16T12:07:33.657Z,14.81
2023-04-16T12:08:33.741Z,14.83
2023-04-16T12:09:33.792Z,14.93
2023-04-16T12:10:33.848Z,15.01
2023-04-16T12:11:33.891Z,14.78
2023-04-16T12:12:33.919Z,14.72
2023-04-16T12:13:33.978Z,14.80
2023-04-16T12:14:34.000Z,14.74
2023-04-16T12:15:34.021Z,14.73
2023-04-16T12:16:35.817Z,14.86
2023-04-16T12:17:34.112Z,14.62
2023-04-16T12:18:34.332Z,14.70
2023-04-16T12:19:34.084Z,14.64
2023-04-16T12:20:34.118Z,14.64
2023-04-16T12:21:34.160Z,14.62
2023-04-16T12:22:36.599Z,14.68
2023-04-16T12:23:34.259Z,14.77
2023-04-16T12:24:34.204Z,14.87
2023-04-16T12:25:34.221Z,14.97
2023-04-16T12:26:34.250Z,14.94
2023-04-16T12:27:34.184Z,15.01
2023-04-16T12:28:34.297Z,14.97
2023-04-16T12:29:34.168Z,14.84
2023-04-16T12:30:34.202Z,14.69
2023-04-16T12:31:34.163Z,14.69
2023-04-16T12:32:34.541Z,14.71
2023-04-16T12:33:34.137Z,14.74
2023-04-16T12:34:49.054Z,14.71
2023-04-16T12:35:35.182Z,14.77
2023-04-16T12:36:34.109Z,14.87
2023-04-16T12:37:34.143Z,14.94
2023-04-16T12:38:34.146Z,15.00
2023-04-16T12:39:34.117Z,14.91
2023-04-16T12:40:34.089Z,14.85
2023-04-16T12:41:34.079Z,14.72
2023-04-16T12:42:34.101Z,14.46
2023-04-16T12:43:34.092Z,14.30
2023-04-16T12:44:34.091Z,14.49
2023-04-16T12:45:34.080Z,14.53
2023-04-16T12:46:34.093Z,14.28
2023-04-16T12:47:34.124Z,13.88
2023-04-16T12:48:34.092Z,13.56
2023-04-16T12:49:34.048Z,13.57
2023-04-16T12:50:34.039Z,13.78
2023-04-16T12:51:34.078Z,13.74
2023-04-16T12:52:34.077Z,13.46
2023-04-16T12:53:34.067Z,13.32
2023-04-16T12:54:34.110Z,13.33
2023-04-16T12:55:34.124Z,13.37
2023-04-16T12:56:34.190Z,13.23
2023-04-16T12:57:34.198Z,13.25
2023-04-16T12:58:34.302Z,13.40
2023-04-16T12:59:34.354Z,13.46
2023-04-16T13:00:34.416Z,13.63
2023-04-16T13:01:34.507Z,13.63